createdAt,value
2023-03-28T00:02:16.817Z,1.80
2023-03-28T00:04:43.970Z,1.80
2023-03-28T00:07:11.926Z,1.70
2023-03-28T00:09:38.997Z,1.70
2023-03-28T00:12:06.260Z,1.80
2023-03-28T00:14:35.608Z,1.80
2023-03-28T00:17:02.734Z,1.70
2023-03-28T00:19:33.195Z,1.70
2023-03-28T00:22:00.458Z,1.60
2023-03-28T00:24:28.089Z,2.10
2023-03-28T00:26:55.421Z,1.90
2023-03-28T00:29:23.129Z,1.90
2023-03-28T00:31:51.782Z,1.70
2023-03-28T00:34:19.028Z,1.80
2023-03-28T00:36:46.252Z,1.90
2023-03-28T00:39:13.494Z,1.70
2023-03-28T00:41:43.743Z,1.50
2023-03-28T00:44:39.023Z,1.70
2023-03-28T00:47:27.572Z,1.80
2023-03-28T00:49:59.910Z,1.70
2023-03-28T00:52:30.662Z,1.60
2023-03-28T00:54:59.717Z,1.30
2023-03-28T00:57:29.179Z,1.60
2023-03-28T00:59:56.377Z,1.70
2023-03-28T01:02:23.927Z,2.00
2023-03-28T01:05:03.922Z,2.00
2023-03-28T01:07:39.725Z,2.00
2023-03-28T01:10:08.102Z,2.00
2023-03-28T01:12:36.119Z,2.20
2023-03-28T01:15:05.117Z,2.40
2023-03-28T01:17:46.530Z,2.30
2023-03-28T01:21:07.346Z,2.20
2023-03-28T01:23:50.006Z,1.90
2023-03-28T01:26:44.506Z,1.80
2023-03-28T01:29:38.931Z,1.70
2023-03-28T01:32:28.403Z,1.70
2023-03-28T01:35:29.126Z,1.80
2023-03-28T01:38:21.424Z,1.70
2023-03-28T01:41:02.245Z,1.90
2023-03-28T01:43:41.433Z,1.70
2023-03-28T01:46:21.174Z,1.50
2023-03-28T01:48:52.048Z,2.00
2023-03-28T01:51:32.762Z,2.00
2023-03-28T01:54:12.662Z,1.70
2023-03-28T01:56:47.247Z,1.90
2023-03-28T01:59:14.451Z,1.50
2023-03-28T02:02:22.933Z,1.20
2023-03-28T02:04:52.157Z,1.40
2023-03-28T02:07:25.283Z,1.40
2023-03-28T02:10:10.759Z,1.30
2023-03-28T02:13:09.538Z,1.30
2023-03-28T02:15:57.589Z,1.30
2023-03-28T02:18:51.587Z,1.40
2023-03-28T02:21:52.332Z,1.30
2023-03-28T02:24:42.093Z,1.00
2023-03-28T02:27:13.476Z,1.40
2023-03-28T02:30:09.425Z,1.30
2023-03-28T02:32:38.153Z,1.20
2023-03-28T02:35:07.251Z,1.20
2023-03-28T02:37:41.314Z,1.10
2023-03-28T02:41:00.446Z,1.10
2023-03-28T02:43:36.849Z,1.40
2023-03-28T02:46:27.901Z,1.40
2023-03-28T02:49:06.146Z,1.80
2023-03-28T02:51:59.811Z,1.40
2023-03-28T02:55:02.033Z,1.40
2023-03-28T02:58:00.462Z,1.40
2023-03-28T03:00:27.642Z,1.30
2023-03-28T03:02:54.995Z,1.20
2023-03-28T03:05:22.536Z,1.10
2023-03-28T03:07:50.460Z,1.20
2023-03-28T03:10:18.356Z,1.10
2023-03-28T03:12:47.447Z,1.10
2023-03-28T03:15:18.130Z,1.30
2023-03-28T03:17:55.868Z,1.40
2023-03-28T03:20:33.548Z,1.30
2023-03-28T03:23:01.843Z,1.30
2023-03-28T03:25:31.437Z,1.30
2023-03-28T03:28:07.886Z,1.20
2023-03-28T03:30:35.495Z,1.30
2023-03-28T03:33:32.733Z,1.30
2023-03-28T03:36:05.822Z,1.30
2023-03-28T03:38:33.993Z,1.20
2023-03-28T03:41:02.946Z,1.50
2023-03-28T03:43:30.289Z,1.60
2023-03-28T03:45:57.943Z,2.00
2023-03-28T03:48:27.072Z,1.50
2023-03-28T03:50:58.120Z,1.20
2023-03-28T04:00:53.974Z,1.80
2023-03-28T04:03:42.836Z,1.40
2023-03-28T04:06:13.208Z,1.30
2023-03-28T04:08:40.420Z,1.40
2023-03-28T04:11:09.553Z,1.40
2023-03-28T04:13:41.682Z,1.70
2023-03-28T04:16:09.221Z,1.50
2023-03-28T04:18:40.820Z,1.30
2023-03-28T04:21:09.845Z,1.60
2023-03-28T04:23:44.073Z,1.60
2023-03-28T04:26:50.178Z,1.10
2023-03-28T04:29:25.181Z,1.20
2023-03-28T04:32:13.002Z,1.20
2023-03-28T04:35:03.426Z,1.10
2023-03-28T04:37:30.791Z,1.20
2023-03-28T04:40:02.961Z,1.30
2023-03-28T04:42:41.347Z,1.00
2023-03-28T04:45:11.701Z,1.10
2023-03-28T04:47:41.085Z,1.00
2023-03-28T04:50:15.424Z,0.80
2023-03-28T04:52:42.560Z,1.00
2023-03-28T04:55:10.459Z,0.90
2023-03-28T04:57:38.670Z,1.20
2023-03-28T05:00:13.185Z,1.10
2023-03-28T05:03:04.715Z,1.40
2023-03-28T05:05:37.668Z,1.30
2023-03-28T05:08:15.625Z,1.00
2023-03-28T05:10:44.303Z,0.90
2023-03-28T05:13:12.162Z,0.90
2023-03-28T05:15:46.103Z,1.10
2023-03-28T05:18:33.300Z,1.00
2023-03-28T05:21:01.142Z,0.90
2023-03-28T05:23:28.372Z,0.90
2023-03-28T05:25:56.071Z,1.00
2023-03-28T05:28:23.089Z,1.00
2023-03-28T05:30:52.318Z,1.10
2023-03-28T05:33:19.731Z,1.10
2023-03-28T05:35:48.240Z,1.00
2023-03-28T05:38:16.459Z,0.90
2023-03-28T05:40:50.480Z,1.00
2023-03-28T05:43:17.411Z,1.00
2023-03-28T05:45:44.527Z,1.00
2023-03-28T05:48:14.071Z,1.00
2023-03-28T05:50:41.844Z,0.80
2023-03-28T05:53:09.155Z,1.00
2023-03-28T05:55:36.232Z,1.10
2023-03-28T05:58:04.939Z,0.90
2023-03-28T06:00:37.319Z,1.00
2023-03-28T06:03:06.160Z,1.00
2023-03-28T06:05:36.872Z,1.10
2023-03-28T06:08:10.418Z,1.10
2023-03-28T06:10:38.052Z,1.20
2023-03-28T06:13:25.390Z,0.90
2023-03-28T06:15:52.436Z,1.10
2023-03-28T06:18:27.427Z,1.10
2023-03-28T06:20:54.905Z,1.00
2023-03-28T06:23:22.518Z,0.90
2023-03-28T06:25:49.855Z,1.00
2023-03-28T06:28:19.211Z,1.10
2023-03-28T06:31:19.849Z,1.00
2023-03-28T06:33:47.556Z,1.40
2023-03-28T06:36:17.330Z,1.40
2023-03-28T06:38:45.906Z,1.50
2023-03-28T06:41:13.120Z,1.10
2023-03-28T06:43:41.585Z,1.20
2023-03-28T06:46:21.949Z,1.20
2023-03-28T06:48:49.108Z,1.30
2023-03-28T06:51:44.656Z,1.40
2023-03-28T06:54:12.109Z,1.60
2023-03-28T06:56:39.133Z,1.40
2023-03-28T06:59:06.354Z,1.40
2023-03-28T07:01:35.039Z,1.40
2023-03-28T07:04:09.603Z,1.30
2023-03-28T07:06:37.825Z,1.40
2023-03-28T07:09:06.648Z,1.40
2023-03-28T07:11:54.188Z,1.50
2023-03-28T07:14:23.532Z,1.50
2023-03-28T07:16:50.706Z,1.60
2023-03-28T07:19:18.071Z,1.70
2023-03-28T07:21:47.405Z,1.70
2023-03-28T07:24:14.678Z,1.80
2023-03-28T07:27:15.415Z,1.80
2023-03-28T07:29:45.268Z,1.80
2023-03-28T07:32:12.481Z,1.80
2023-03-28T07:34:39.650Z,1.90
2023-03-28T07:37:09.488Z,2.00
2023-03-28T07:40:10.927Z,2.10
2023-03-28T07:42:40.327Z,2.00
2023-03-28T07:45:08.010Z,2.10
2023-03-28T07:47:35.173Z,2.10
2023-03-28T07:50:04.016Z,2.10
2023-03-28T07:52:31.329Z,2.20
2023-03-28T07:54:58.338Z,2.20
2023-03-28T07:57:26.112Z,2.30
2023-03-28T08:00:13.174Z,2.20
2023-03-28T08:02:53.858Z,2.30
2023-03-28T08:05:21.871Z,2.30
2023-03-28T08:07:49.097Z,2.30
2023-03-28T08:10:16.231Z,2.50
2023-03-28T08:12:43.250Z,2.40
2023-03-28T08:15:11.020Z,2.50
2023-03-28T08:17:38.155Z,2.50
2023-03-28T08:20:11.098Z,2.40
2023-03-28T08:22:57.489Z,2.60
2023-03-28T08:25:36.355Z,2.60
2023-03-28T08:28:04.033Z,2.80
2023-03-28T08:30:31.274Z,3.00
2023-03-28T08:33:04.609Z,2.90
2023-03-28T08:35:33.429Z,2.90
2023-03-28T08:38:08.561Z,2.80
2023-03-28T08:40:45.028Z,2.60
2023-03-28T08:43:43.641Z,2.60
2023-03-28T08:46:13.084Z,2.70
2023-03-28T08:48:48.608Z,2.70
2023-03-28T08:51:30.689Z,2.80
2023-03-28T08:54:22.221Z,2.70
2023-03-28T08:57:03.048Z,2.70
2023-03-28T08:59:41.954Z,2.70
2023-03-28T09:02:21.868Z,2.70
2023-03-28T09:04:50.537Z,2.80
2023-03-28T09:07:28.026Z,3.00
2023-03-28T09:10:19.556Z,3.20
2023-03-28T09:13:24.327Z,3.10
2023-03-28T09:16:06.963Z,3.20
2023-03-28T09:18:44.713Z,3.40
2023-03-28T09:21:31.404Z,3.20
2023-03-28T09:24:23.759Z,3.30
2023-03-28T09:27:34.883Z,3.70
2023-03-28T09:30:29.152Z,3.40
2023-03-28T09:32:59.500Z,3.60
2023-03-28T09:35:30.804Z,3.90
2023-03-28T09:38:05.767Z,3.90
2023-03-28T09:40:35.326Z,4.00
2023-03-28T09:43:42.822Z,4.00
2023-03-28T09:46:27.800Z,4.10
2023-03-28T09:49:03.694Z,4.80
2023-03-28T09:51:37.240Z,4.80
2023-03-28T09:54:07.717Z,4.50
2023-03-28T09:56:38.809Z,4.20
2023-03-28T09:59:30.076Z,3.90
2023-03-28T10:02:04.247Z,4.20
2023-03-28T10:04:38.735Z,4.20
2023-03-28T10:07:14.519Z,4.30
2023-03-28T10:09:54.150Z,4.80
2023-03-28T10:12:37.773Z,5.10
2023-03-28T10:15:07.892Z,4.80
2023-03-28T10:18:04.324Z,4.80
2023-03-28T10:20:38.337Z,4.50
2023-03-28T10:23:07.184Z,4.60
2023-03-28T10:25:45.943Z,5.30
2023-03-28T10:28:17.694Z,5.00
2023-03-28T10:30:54.462Z,4.90
2023-03-28T10:33:26.614Z,4.50
2023-03-28T10:36:29.190Z,4.40
2023-03-28T10:38:59.275Z,4.20
2023-03-28T10:41:53.225Z,4.20
2023-03-28T10:44:36.906Z,4.10
2023-03-28T10:47:18.164Z,4.10
2023-03-28T10:50:19.968Z,4.20
2023-03-28T10:53:10.677Z,4.30
2023-03-28T10:56:10.957Z,4.20
2023-03-28T10:59:00.055Z,4.20
2023-03-28T11:01:45.225Z,4.20
2023-03-28T11:04:35.274Z,4.20
2023-03-28T11:07:15.646Z,4.30
2023-03-28T11:10:24.053Z,4.30
2023-03-28T11:13:16.394Z,4.50
2023-03-28T11:16:03.573Z,4.70
2023-03-28T11:18:54.281Z,4.50
2023-03-28T11:21:48.610Z,4.80
2023-03-28T11:24:30.693Z,4.60
2023-03-28T11:27:38.963Z,4.60
2023-03-28T11:30:26.754Z,4.80
2023-03-28T11:33:56.567Z,5.90
2023-03-28T11:37:08.949Z,5.50
2023-03-28T11:39:44.885Z,5.30
2023-03-28T11:42:42.401Z,5.50
2023-03-28T11:45:37.490Z,5.60
2023-03-28T11:48:26.834Z,5.40
2023-03-28T11:50:59.327Z,5.40
2023-03-28T11:54:02.465Z,5.20
2023-03-28T11:57:04.138Z,5.40
2023-03-28T12:03:19.568Z,5.40
2023-03-28T12:06:04.915Z,5.40
2023-03-28T12:09:26.075Z,5.50
2023-03-28T12:12:06.224Z,5.30
2023-03-28T12:14:57.676Z,4.70
2023-03-28T12:17:43.533Z,4.90
2023-03-28T12:20:39.731Z,6.30
2023-03-28T12:23:42.118Z,7.70
2023-03-28T12:26:38.287Z,7.60
2023-03-28T12:29:28.376Z,7.70
2023-03-28T12:32:24.995Z,7.10
2023-03-28T12:35:27.747Z,7.20
2023-03-28T12:38:12.885Z,7.50
2023-03-28T12:41:00.554Z,6.80
2023-03-28T12:43:47.847Z,6.20
2023-03-28T12:46:28.091Z,6.10
2023-03-28T12:49:13.334Z,6.30
2023-03-28T12:51:54.889Z,6.20
2023-03-28T12:54:28.585Z,6.20
2023-03-28T12:57:04.571Z,6.40
2023-03-28T12:59:49.374Z,6.20
2023-03-28T13:02:39.265Z,6.10
2023-03-28T13:05:20.996Z,6.30
2023-03-28T13:07:48.517Z,6.30
2023-03-28T13:10:28.587Z,6.10
2023-03-28T13:13:32.486Z,6.30
2023-03-28T13:16:07.005Z,6.10
2023-03-28T13:18:34.992Z,6.20
2023-03-28T13:21:05.541Z,6.40
2023-03-28T13:23:36.557Z,6.30
2023-03-28T13:26:06.236Z,6.60
2023-03-28T13:28:42.156Z,6.60
2023-03-28T13:31:19.635Z,6.50
2023-03-28T13:34:01.894Z,7.00
2023-03-28T13:36:34.315Z,6.40
2023-03-28T13:39:22.718Z,6.10
2023-03-28T13:41:49.648Z,6.40
2023-03-28T13:44:27.706Z,6.40
2023-03-28T13:46:55.356Z,6.10
2023-03-28T13:50:04.503Z,6.60
2023-03-28T13:52:32.496Z,7.10
2023-03-28T13:55:13.987Z,8.20
2023-03-28T13:57:41.586Z,7.50
2023-03-28T14:00:18.333Z,6.90
2023-03-28T14:02:48.087Z,6.60
2023-03-28T14:05:30.579Z,6.50
2023-03-28T14:08:17.801Z,6.40
2023-03-28T14:10:46.205Z,6.60
2023-03-28T14:13:20.361Z,6.80
2023-03-28T14:15:47.745Z,6.50
2023-03-28T14:18:34.741Z,6.50
2023-03-28T14:21:02.528Z,6.30
2023-03-28T14:23:36.902Z,6.40
2023-03-28T14:26:16.527Z,7.60
2023-03-28T14:28:46.061Z,8.20
2023-03-28T14:31:29.740Z,8.70
2023-03-28T14:34:00.039Z,9.30
2023-03-28T14:36:31.688Z,9.40
2023-03-28T14:39:06.680Z,8.90
2023-03-28T14:41:37.539Z,9.40
2023-03-28T14:44:06.992Z,8.80
2023-03-28T14:46:34.431Z,9.40
2023-03-28T14:49:05.803Z,9.30
2023-03-28T14:51:45.328Z,8.60
2023-03-28T14:54:15.545Z,8.30
2023-03-28T14:56:44.921Z,8.60
2023-03-28T14:59:16.401Z,9.10
2023-03-28T15:01:46.575Z,8.70
2023-03-28T15:04:15.846Z,9.30
2023-03-28T15:06:42.998Z,9.30
2023-03-28T15:09:20.738Z,9.10
2023-03-28T15:11:47.968Z,9.30
2023-03-28T15:14:31.369Z,9.60
2023-03-28T15:16:59.450Z,10.10
2023-03-28T15:19:32.211Z,10.30
2023-03-28T15:22:14.468Z,10.10
2023-03-28T15:24:41.868Z,9.20
2023-03-28T15:27:24.864Z,9.10
2023-03-28T15:29:52.048Z,9.20
2023-03-28T15:32:20.483Z,8.70
2023-03-28T15:35:01.526Z,8.80
2023-03-28T15:37:28.586Z,9.20
2023-03-28T15:40:32.362Z,8.80
2023-03-28T15:43:01.385Z,8.30
2023-03-28T15:45:41.027Z,8.20
2023-03-28T15:48:16.322Z,8.40
2023-03-28T15:50:51.072Z,8.10
2023-03-28T15:53:19.190Z,8.00
2023-03-28T15:55:48.405Z,8.00
2023-03-28T15:58:20.774Z,8.20
2023-03-28T16:00:53.161Z,8.00
2023-03-28T16:03:34.139Z,8.00
2023-03-28T16:06:10.184Z,7.90
2023-03-28T16:08:42.607Z,7.50
2023-03-28T16:11:16.928Z,7.60
2023-03-28T16:14:04.017Z,7.60
2023-03-28T16:16:54.112Z,7.70
2023-03-28T16:19:30.800Z,7.70
2023-03-28T16:21:59.804Z,7.70
2023-03-28T16:24:28.131Z,7.90
2023-03-28T16:26:55.597Z,7.80
2023-03-28T16:29:22.482Z,7.80
2023-03-28T16:31:49.502Z,7.30
2023-03-28T16:34:16.428Z,7.70
2023-03-28T16:36:43.452Z,7.80
2023-03-28T16:39:11.556Z,7.80
2023-03-28T16:41:38.600Z,8.10
2023-03-28T16:44:05.758Z,8.10
2023-03-28T16:46:32.811Z,8.00
2023-03-28T16:48:59.919Z,7.90
2023-03-28T16:51:26.968Z,7.70
2023-03-28T16:53:53.987Z,7.80
2023-03-28T16:56:20.909Z,7.60
2023-03-28T16:58:48.374Z,7.60
2023-03-28T17:01:19.317Z,7.60
2023-03-28T17:03:47.325Z,7.60
2023-03-28T17:06:16.697Z,7.70
2023-03-28T17:08:44.364Z,7.60
2023-03-28T17:11:12.997Z,7.80
2023-03-28T17:13:42.013Z,7.60
2023-03-28T17:16:10.319Z,7.80
2023-03-28T17:18:37.633Z,7.70
2023-03-28T17:21:06.350Z,7.80
2023-03-28T17:23:34.612Z,7.60
2023-03-28T17:26:02.257Z,7.60
2023-03-28T17:28:29.703Z,7.50
2023-03-28T17:30:57.169Z,7.50
2023-03-28T17:33:24.391Z,7.50
2023-03-28T17:35:51.784Z,7.40
2023-03-28T17:38:18.874Z,7.30
2023-03-28T17:40:47.311Z,7.20
2023-03-28T17:43:14.422Z,7.10
2023-03-28T17:45:41.486Z,6.90
2023-03-28T17:48:08.915Z,6.70
2023-03-28T17:50:37.176Z,6.70
2023-03-28T17:53:04.356Z,6.70
2023-03-28T17:55:31.357Z,6.90
2023-03-28T17:57:58.371Z,6.90
2023-03-28T18:00:25.815Z,6.90
2023-03-28T18:02:53.151Z,7.00
2023-03-28T18:05:50.576Z,6.80
2023-03-28T18:08:17.742Z,7.00
2023-03-28T18:10:46.943Z,6.90
2023-03-28T18:13:14.696Z,6.80
2023-03-28T18:15:43.055Z,6.80
2023-03-28T18:18:12.798Z,6.70
2023-03-28T18:20:42.537Z,6.60
2023-03-28T18:23:09.602Z,6.60
2023-03-28T18:25:37.341Z,6.50
2023-03-28T18:28:05.410Z,6.60
2023-03-28T18:30:32.518Z,6.50
2023-03-28T18:32:59.833Z,6.50
2023-03-28T18:35:27.774Z,6.30
2023-03-28T18:37:56.036Z,6.20
2023-03-28T18:40:23.529Z,6.20
2023-03-28T18:42:50.514Z,6.30
2023-03-28T18:45:17.582Z,6.30
2023-03-28T18:47:44.630Z,5.70
2023-03-28T18:50:11.679Z,5.60
2023-03-28T18:52:38.857Z,5.60
2023-03-28T18:55:06.607Z,5.90
2023-03-28T18:57:35.011Z,5.80
2023-03-28T19:00:07.739Z,5.80
2023-03-28T19:02:35.010Z,5.90
2023-03-28T19:05:02.170Z,5.90
2023-03-28T19:07:29.140Z,5.90
2023-03-28T19:09:56.557Z,6.00
2023-03-28T19:12:23.529Z,5.70
2023-03-28T19:14:50.580Z,5.60
2023-03-28T19:17:17.500Z,5.80
2023-03-28T19:19:44.481Z,5.70
2023-03-28T19:22:11.680Z,5.80
2023-03-28T19:24:38.669Z,5.60
2023-03-28T19:27:05.696Z,5.60
2023-03-28T19:29:32.701Z,5.50
2023-03-28T19:31:59.669Z,5.40
2023-03-28T19:34:28.001Z,5.60
2023-03-28T19:36:55.004Z,5.50
2023-03-28T19:39:22.166Z,5.30
2023-03-28T19:41:49.144Z,5.40
2023-03-28T19:44:16.164Z,5.50
2023-03-28T19:46:43.332Z,5.50
2023-03-28T19:49:11.401Z,5.40
2023-03-28T19:51:38.673Z,4.60
2023-03-28T19:54:05.762Z,4.90
2023-03-28T19:56:32.900Z,5.20
2023-03-28T19:59:00.004Z,5.40
2023-03-28T20:01:27.173Z,5.20
2023-03-28T20:03:54.215Z,5.10
2023-03-28T20:06:23.033Z,5.30
2023-03-28T20:08:50.782Z,5.30
2023-03-28T20:11:18.162Z,5.30
2023-03-28T20:13:45.085Z,5.10
2023-03-28T20:16:12.844Z,5.10
2023-03-28T20:18:40.435Z,5.10
2023-03-28T20:21:10.751Z,5.20
2023-03-28T20:23:37.984Z,5.10
2023-03-28T20:26:19.915Z,5.00
2023-03-28T20:28:49.663Z,5.00
2023-03-28T20:31:18.137Z,5.10
2023-03-28T20:33:45.241Z,5.00
2023-03-28T20:36:12.257Z,5.00
2023-03-28T20:38:39.438Z,5.10
2023-03-28T20:41:11.243Z,5.10
2023-03-28T20:43:40.918Z,5.20
2023-03-28T20:46:09.850Z,4.90
2023-03-28T20:48:37.105Z,5.00
2023-03-28T20:51:14.144Z,5.00
2023-03-28T20:53:43.656Z,5.00
2023-03-28T20:56:13.535Z,5.10
2023-03-28T20:58:41.019Z,5.10
2023-03-28T21:01:10.675Z,4.90
2023-03-28T21:03:52.038Z,5.00
2023-03-28T21:06:21.736Z,5.00
2023-03-28T21:08:51.031Z,5.00
2023-03-28T21:11:21.201Z,4.90
2023-03-28T21:13:48.798Z,4.80
2023-03-28T21:16:17.185Z,4.70
2023-03-28T21:18:45.013Z,4.70
2023-03-28T21:21:13.952Z,4.80
2023-03-28T21:23:42.313Z,4.60
2023-03-28T21:26:12.406Z,4.80
2023-03-28T21:28:39.498Z,4.70
2023-03-28T21:31:28.153Z,4.60
2023-03-28T21:33:59.797Z,4.70
2023-03-28T21:36:27.701Z,4.60
2023-03-28T21:38:55.758Z,4.60
2023-03-28T21:41:22.942Z,4.70
2023-03-28T21:43:50.518Z,4.70
2023-03-28T21:46:18.786Z,4.60
2023-03-28T21:48:48.436Z,4.70
2023-03-28T21:51:17.411Z,4.70
2023-03-28T21:53:44.538Z,4.50
2023-03-28T21:56:14.194Z,4.60
2023-03-28T21:58:41.252Z,4.60
2023-03-28T22:01:08.449Z,4.60
2023-03-28T22:03:37.336Z,4.70
2023-03-28T22:06:05.039Z,4.50
2023-03-28T22:08:32.044Z,4.40
2023-03-28T22:11:02.258Z,4.60
2023-03-28T22:13:29.967Z,4.40
2023-03-28T22:16:00.494Z,4.40
2023-03-28T22:18:28.363Z,4.00
2023-03-28T22:20:55.585Z,4.40
2023-03-28T22:23:23.509Z,4.30
2023-03-28T22:25:51.120Z,4.50
2023-03-28T22:28:18.887Z,4.30
2023-03-28T22:30:46.013Z,4.40
2023-03-28T22:33:13.514Z,4.50
2023-03-28T22:35:40.735Z,4.50
2023-03-28T22:38:07.998Z,4.30
2023-03-28T22:40:35.486Z,4.30
2023-03-28T22:43:03.289Z,4.40
2023-03-28T22:45:30.422Z,4.40
2023-03-28T22:48:03.211Z,4.40
2023-03-28T22:50:33.548Z,4.40
2023-03-28T22:53:02.384Z,4.40
2023-03-28T22:55:29.501Z,4.40
2023-03-28T22:57:57.123Z,4.40
2023-03-28T23:00:24.175Z,4.30
2023-03-28T23:02:52.289Z,4.20
2023-03-28T23:05:19.869Z,4.20
2023-03-28T23:07:47.391Z,4.30
2023-03-28T23:10:17.336Z,4.30
2023-03-28T23:12:44.819Z,4.40
2023-03-28T23:15:12.669Z,4.40
2023-03-28T23:17:40.278Z,4.40
2023-03-28T23:20:15.001Z,4.40
2023-03-28T23:22:47.285Z,4.40
2023-03-28T23:25:16.941Z,4.30
2023-03-28T23:27:44.208Z,4.30
2023-03-28T23:30:13.682Z,4.40
2023-03-28T23:32:40.934Z,4.40
2023-03-28T23:35:10.413Z,4.50
2023-03-28T23:37:38.404Z,4.40
2023-03-28T23:40:10.439Z,3.50
2023-03-28T23:42:37.492Z,3.90
2023-03-28T23:45:04.825Z,4.00
2023-03-28T23:47:31.860Z,4.20
2023-03-28T23:49:58.947Z,4.20
2023-03-28T23:52:25.893Z,3.90
2023-03-28T23:54:53.028Z,4.10
2023-03-28T23:57:20.064Z,3.90
2023-03-28T23:59:47.029Z,4.10
